Queen Of Capilano — VY9513 — position and weather

sailwx.info

Track history (hours):
 
Tides and Currents Weather Stations Pressure Air Temp Water Temp Dewpoint Dewpoint Depression Visibility Wind Speed Wind Dir Waves Ship Positions

Queen Of Capilano

Last reported at 2017-Oct-23 00:30 UTC. Time now 2017-Oct-23 00:44 UTC.
Position N 49°23' W 123°16'.

Length 96 m; draft 4.4 m.

Type: Passenger vessel. MMSI: 316001247.

Date/timePositionNaut miles runAvg speedWind from/ knotsBaromVisibWave heightAir tempDewpointWater temp
2017-Oct-23 00:30N 49°23' W 123°16'2 4.6
2017-Oct-23 00:01N 49°23' W 123°20'2 4.5
2017-Oct-22 23:31N 49°23' W 123°16'2 4.5
2017-Oct-22 23:01N 49°23' W 123°20'2 4.5
2017-Oct-22 22:31N 49°23' W 123°16'2 4.5
2017-Oct-22 22:01N 49°23' W 123°20'1 3.0
2017-Oct-22 21:31N 49°23' W 123°18'1 1.7
2017-Oct-22 21:00N 49°23' W 123°16'0 0.0
2017-Oct-22 20:28N 49°23' W 123°16'0 0.0
2017-Oct-22 19:58N 49°23' W 123°16'2 5.1
2017-Oct-22 19:31N 49°23' W 123°20'2 4.6
2017-Oct-22 19:01N 49°23' W 123°16'2 4.6
2017-Oct-22 18:30N 49°23' W 123°20'2 4.6
2017-Oct-22 18:01N 49°23' W 123°16'2 4.5
2017-Oct-22 17:31N 49°23' W 123°20'2 4.5
2017-Oct-22 17:01N 49°23' W 123°16'2 4.6
2017-Oct-22 16:30N 49°23' W 123°20'2 4.6
2017-Oct-22 16:01N 49°23' W 123°16'2 4.6
2017-Oct-22 15:30N 49°23' W 123°20'2 4.6
2017-Oct-22 15:00N 49°23' W 123°16'0 0.0
2017-Oct-22 14:30N 49°23' W 123°16'0 0.0
2017-Oct-22 14:00N 49°23' W 123°16'2 4.6
2017-Oct-22 13:31N 49°23' W 123°20'2 4.6
2017-Oct-22 13:01N 49°23' W 123°16'0 0.4
2017-Oct-22 12:30N 49°23' W 123°16'0 0.0
2017-Oct-22 12:00N 49°23' W 123°16'0 0.0
2017-Oct-22 11:27N 49°23' W 123°16'0 0.0
2017-Oct-22 10:57N 49°23' W 123°16'0 0.0
2017-Oct-22 10:30N 49°23' W 123°16'0 0.0
2017-Oct-22 10:00N 49°23' W 123°16'0 0.0
2017-Oct-22 09:30N 49°23' W 123°16'0 0.0
2017-Oct-22 09:00N 49°23' W 123°16'0 0.0
2017-Oct-22 08:30N 49°23' W 123°16'0 0.0
2017-Oct-22 07:54N 49°23' W 123°16'0 0.0
2017-Oct-22 07:30N 49°23' W 123°16'0 0.0
2017-Oct-22 07:00N 49°23' W 123°16'0 0.0
2017-Oct-22 06:30N 49°23' W 123°16'0 0.0
2017-Oct-22 06:00N 49°23' W 123°16'0 0.0
2017-Oct-22 05:21N 49°23' W 123°16'2 6.8
2017-Oct-22 05:00N 49°23' W 123°20'2 4.6
2017-Oct-22 04:30N 49°23' W 123°16'2 4.4
2017-Oct-22 04:01N 49°23' W 123°20'2 4.4
2017-Oct-22 03:30N 49°23' W 123°16'2 4.6
2017-Oct-22 03:00N 49°23' W 123°20'0 0.0
2017-Oct-22 02:30N 49°23' W 123°20'0 0.0
2017-Oct-22 02:01N 49°23' W 123°20'2 4.6
2017-Oct-22 01:30N 49°23' W 123°16'2 4.6
2017-Oct-22 01:00N 49°23' W 123°20'2 4.6
2017-Oct-22 00:30N 49°23' W 123°16'2 4.6
2017-Oct-22 00:00N 49°23' W 123°20'2 4.6
2017-Oct-21 23:30N 49°23' W 123°16'2 4.5
2017-Oct-21 23:00N 49°23' W 123°20'2 4.5
2017-Oct-21 22:30N 49°23' W 123°16'2 4.5
2017-Oct-21 22:00N 49°23' W 123°20'2 3.2
2017-Oct-21 21:30N 49°23' W 123°17'1 1.7
2017-Oct-21 21:00N 49°23' W 123°16'0 0.0
2017-Oct-21 20:24N 49°23' W 123°16'0 0.0
2017-Oct-21 20:00N 49°23' W 123°16'2 4.7
2017-Oct-21 19:31N 49°23' W 123°20'2 4.6
2017-Oct-21 19:00N 49°23' W 123°16'2 4.6
2017-Oct-21 18:30N 49°23' W 123°20'2 4.6
2017-Oct-21 18:01N 49°23' W 123°16'2 4.5
2017-Oct-21 17:31N 49°23' W 123°20'2 4.4
2017-Oct-21 17:00N 49°23' W 123°16'2 4.5
2017-Oct-21 16:31N 49°23' W 123°20'2 4.5
2017-Oct-21 16:01N 49°23' W 123°16'2 4.5
2017-Oct-21 15:31N 49°23' W 123°20'2 4.5
2017-Oct-21 15:01N 49°23' W 123°16'2 4.6
2017-Oct-21 14:31N 49°23' W 123°20'0 0.0
2017-Oct-21 13:31N 49°23' W 123°20'2 4.5
2017-Oct-21 13:01N 49°23' W 123°16'0 0.3
2017-Oct-21 12:31N 49°23' W 123°16'0 0.0
2017-Oct-21 11:58N 49°23' W 123°16'0 0.0
2017-Oct-21 11:28N 49°23' W 123°16'0 0.0
2017-Oct-21 10:58N 49°23' W 123°16'0 0.0
2017-Oct-21 10:28N 49°23' W 123°16'0 0.0
2017-Oct-21 09:58N 49°23' W 123°16'0 0.0
2017-Oct-21 09:28N 49°23' W 123°16'0 0.0
2017-Oct-21 08:58N 49°23' W 123°16'0 0.0
2017-Oct-21 08:28N 49°23' W 123°16'0 0.0
2017-Oct-21 07:55N 49°23' W 123°16'0 0.0
2017-Oct-21 07:28N 49°23' W 123°16'0 0.0
2017-Oct-21 06:49N 49°23' W 123°16'0 0.0
2017-Oct-21 06:28N 49°23' W 123°16'0 0.0
2017-Oct-21 05:58N 49°23' W 123°16'0 0.0
2017-Oct-21 05:28N 49°23' W 123°16'2 5.1
2017-Oct-21 05:01N 49°23' W 123°20'2 4.7
2017-Oct-21 04:31N 49°23' W 123°16'2 4.6
2017-Oct-21 04:00N 49°23' W 123°20'2 4.6
2017-Oct-21 03:31N 49°23' W 123°16'2 4.5
2017-Oct-21 03:01N 49°23' W 123°20'2 4.5
2017-Oct-21 02:30N 49°23' W 123°16'2 4.4
2017-Oct-21 02:01N 49°23' W 123°20'2 4.4
2017-Oct-21 01:30N 49°23' W 123°16'2 4.6
2017-Oct-21 01:00N 49°23' W 123°20'2 4.6
2017-Oct-21 00:30N 49°23' W 123°16'2 4.6
2017-Oct-21 00:01N 49°23' W 123°20'2 4.6
2017-Oct-20 23:30N 49°23' W 123°16'2 4.6
2017-Oct-20 23:00N 49°23' W 123°20'2 4.6
2017-Oct-20 22:30N 49°23' W 123°16'2 4.6
2017-Oct-20 22:00N 49°23' W 123°20'2 3.7
2017-Oct-20 21:31N 49°23' W 123°17'1 1.3
2017-Oct-20 21:01N 49°23' W 123°16'0 0.0
2017-Oct-20 20:29N 49°23' W 123°16'0 0.0
2017-Oct-20 19:59N 49°23' W 123°16'2 4.8
2017-Oct-20 19:30N 49°23' W 123°20'2 4.6
2017-Oct-20 19:01N 49°23' W 123°16'2 4.6
2017-Oct-20 18:30N 49°23' W 123°20'2 4.6
2017-Oct-20 18:00N 49°23' W 123°16'2 4.6
2017-Oct-20 17:30N 49°23' W 123°20'2 4.6
2017-Oct-20 17:00N 49°23' W 123°16'2 4.6
2017-Oct-20 16:31N 49°23' W 123°20'2 4.6
2017-Oct-20 16:01N 49°23' W 123°16'2 4.6
2017-Oct-20 15:30N 49°23' W 123°20'2 4.6
2017-Oct-20 15:00N 49°23' W 123°16'2 4.6
2017-Oct-20 14:30N 49°23' W 123°20'0 0.1
2017-Oct-20 13:31N 49°23' W 123°20'2 4.5
2017-Oct-20 13:00N 49°23' W 123°16'2 4.4
2017-Oct-20 12:30N 49°23' W 123°20'2 3.8
2017-Oct-20 12:00N 49°23' W 123°17'1 1.0
2017-Oct-20 11:30N 49°23' W 123°16'0 0.0
2017-Oct-20 11:00N 49°23' W 123°16'0 0.0
2017-Oct-20 10:30N 49°23' W 123°16'0 0.0
2017-Oct-20 10:00N 49°23' W 123°16'0 0.0
2017-Oct-20 09:30N 49°23' W 123°16'0 0.0
2017-Oct-20 09:00N 49°23' W 123°16'0 0.0
2017-Oct-20 08:30N 49°23' W 123°16'0 0.0
2017-Oct-20 08:00N 49°23' W 123°16'0 0.0
2017-Oct-20 07:30N 49°23' W 123°16'0 0.0
2017-Oct-20 07:00N 49°23' W 123°16'0 0.0
2017-Oct-20 06:30N 49°23' W 123°16'0 0.0
2017-Oct-20 06:00N 49°23' W 123°16'0 0.0
2017-Oct-20 05:30N 49°23' W 123°16'2 4.8
2017-Oct-20 05:01N 49°23' W 123°20'2 4.7
2017-Oct-20 04:30N 49°23' W 123°16'2 4.5
2017-Oct-20 04:01N 49°23' W 123°20'2 4.5
2017-Oct-20 03:31N 49°23' W 123°16'2 4.5
2017-Oct-20 03:01N 49°23' W 123°20'2 4.5
2017-Oct-20 02:31N 49°23' W 123°16'2 4.6
2017-Oct-20 02:01N 49°23' W 123°20'2 4.6
2017-Oct-20 01:30N 49°23' W 123°16'2 4.6
2017-Oct-20 01:01N 49°23' W 123°20'2 4.6
2017-Oct-20 00:31N 49°23' W 123°16'2 4.6
2017-Oct-20 00:01N 49°23' W 123°20'2 4.6
2017-Oct-19 23:30N 49°23' W 123°16'2 4.6
2017-Oct-19 23:00N 49°23' W 123°20'2 4.6
2017-Oct-19 22:30N 49°23' W 123°16'2 4.6
2017-Oct-19 22:01N 49°23' W 123°20'2 3.1
2017-Oct-19 21:31N 49°23' W 123°18'1 1.8
2017-Oct-19 21:00N 49°23' W 123°16'0 0.0
2017-Oct-19 20:28N 49°23' W 123°16'0 0.0
2017-Oct-19 19:58N 49°23' W 123°16'2 5.0
2017-Oct-19 19:30N 49°23' W 123°20'2 4.7
2017-Oct-19 19:01N 49°23' W 123°16'2 4.7
2017-Oct-19 18:30N 49°23' W 123°20'2 4.7
2017-Oct-19 18:01N 49°23' W 123°16'2 4.6
2017-Oct-19 17:30N 49°23' W 123°20'2 4.6
2017-Oct-19 17:01N 49°23' W 123°16'2 4.6
2017-Oct-19 16:31N 49°23' W 123°20'2 4.6
2017-Oct-19 16:01N 49°23' W 123°16'2 4.6
2017-Oct-19 15:31N 49°23' W 123°20'2 4.6
2017-Oct-19 15:00N 49°23' W 123°16'2 4.6
2017-Oct-19 14:31N 49°23' W 123°20'2 4.6
2017-Oct-19 14:01N 49°23' W 123°16'2 4.5
2017-Oct-19 13:31N 49°23' W 123°20'2 4.5
2017-Oct-19 13:01N 49°23' W 123°16'2 4.5
2017-Oct-19 12:31N 49°23' W 123°20'2 4.4
2017-Oct-19 12:00N 49°23' W 123°16'0 0.8
2017-Oct-19 11:29N 49°23' W 123°16'0 0.0
2017-Oct-19 10:56N 49°23' W 123°16'0 0.0
2017-Oct-19 10:23N 49°23' W 123°16'0 0.0
2017-Oct-19 09:59N 49°23' W 123°16'0 0.0
2017-Oct-19 09:29N 49°23' W 123°16'0 0.0
2017-Oct-19 08:59N 49°23' W 123°16'0 0.0
2017-Oct-19 08:29N 49°23' W 123°16'0 0.0
2017-Oct-19 07:59N 49°23' W 123°16'0 0.0
2017-Oct-19 07:29N 49°23' W 123°16'0 0.0
2017-Oct-19 06:59N 49°23' W 123°16'0 0.0
2017-Oct-19 06:23N 49°23' W 123°16'0 0.0
2017-Oct-19 05:59N 49°23' W 123°16'0 0.0
2017-Oct-19 05:26N 49°23' W 123°16'2 5.4
2017-Oct-19 05:00N 49°23' W 123°20'2 4.6
2017-Oct-19 04:30N 49°23' W 123°16'2 4.5
2017-Oct-19 04:00N 49°23' W 123°20'2 4.4
2017-Oct-19 03:31N 49°23' W 123°16'1 2.2
2017-Oct-19 03:01N 49°23' W 123°18'0 0.3
2017-Oct-19 02:30N 49°23' W 123°18'1 1.3
2017-Oct-19 02:00N 49°23' W 123°17'2 3.2
2017-Oct-19 01:30N 49°23' W 123°19'2 4.1
2017-Oct-19 01:00N 49°23' W 123°16'1 1.9
2017-Oct-19 00:31N 49°23' W 123°18'1 2.0
2017-Oct-19 00:01N 49°23' W 123°19'2 3.9
2017-Oct-18 23:30N 49°23' W 123°16'2 4.2
2017-Oct-18 23:00N 49°23' W 123°20'2 4.3
2017-Oct-18 22:31N 49°23' W 123°16'2 4.6
2017-Oct-18 22:00N 49°23' W 123°20'2 3.2
2017-Oct-18 21:30N 49°23' W 123°17'1 1.7
2017-Oct-18 21:00N 49°23' W 123°16'0 0.0
2017-Oct-18 20:30N 49°23' W 123°16'2 3.0
2017-Oct-18 20:00N 49°23' W 123°19'1 1.2
2017-Oct-18 19:30N 49°23' W 123°19'2 3.6
2017-Oct-18 19:00N 49°23' W 123°17'2 4.2
2017-Oct-18 18:30N 49°23' W 123°20'2 4.6
2017-Oct-18 18:00N 49°23' W 123°16'2 4.6
2017-Oct-18 17:30N 49°23' W 123°20'2 4.6
2017-Oct-18 17:00N 49°23' W 123°16'2 4.6
2017-Oct-18 16:30N 49°23' W 123°20'2 4.6
2017-Oct-18 16:00N 49°23' W 123°16'2 4.6
2017-Oct-18 15:30N 49°23' W 123°20'2 4.6
2017-Oct-18 15:00N 49°23' W 123°16'0 0.1
2017-Oct-18 14:00N 49°23' W 123°16'2 4.5
2017-Oct-18 13:30N 49°23' W 123°20'2 4.5
2017-Oct-18 13:00N 49°23' W 123°16'2 4.4
2017-Oct-18 12:30N 49°23' W 123°20'2 4.0
2017-Oct-18 12:00N 49°23' W 123°17'0 0.8
2017-Oct-18 11:29N 49°23' W 123°16'0 0.0
2017-Oct-18 10:59N 49°23' W 123°16'0 0.0
2017-Oct-18 10:29N 49°23' W 123°16'0 0.0
2017-Oct-18 09:59N 49°23' W 123°16'0 0.0
2017-Oct-18 09:29N 49°23' W 123°16'0 0.0
2017-Oct-18 08:59N 49°23' W 123°16'0 0.0
2017-Oct-18 08:29N 49°23' W 123°16'0 0.0
2017-Oct-18 07:59N 49°23' W 123°16'0 0.0
2017-Oct-18 07:29N 49°23' W 123°16'0 0.0
2017-Oct-18 06:59N 49°23' W 123°16'0 0.0
2017-Oct-18 06:26N 49°23' W 123°16'0 0.0
2017-Oct-18 05:59N 49°23' W 123°16'0 0.0
2017-Oct-18 05:29N 49°23' W 123°16'2 4.9
2017-Oct-18 05:00N 49°23' W 123°20'2 4.6
2017-Oct-18 04:30N 49°23' W 123°16'2 4.4
2017-Oct-18 04:00N 49°23' W 123°20'2 4.5
2017-Oct-18 03:31N 49°23' W 123°16'2 4.5
2017-Oct-18 03:01N 49°23' W 123°20'2 4.4
2017-Oct-18 02:30N 49°23' W 123°16'2 4.6
2017-Oct-18 02:01N 49°23' W 123°20'2 4.6
2017-Oct-18 01:30N 49°23' W 123°16'2 4.6
2017-Oct-18 01:00N 49°23' W 123°20'2 4.6
2017-Oct-18 00:30N 49°23' W 123°16'2 4.6
2017-Oct-18 00:01N 49°23' W 123°20'2 4.5
2017-Oct-17 23:31N 49°23' W 123°16'2 4.6
2017-Oct-17 23:00N 49°23' W 123°20'2 4.6
2017-Oct-17 22:31N 49°23' W 123°16'2 4.4
2017-Oct-17 22:00N 49°23' W 123°20'2 3.9
2017-Oct-17 21:31N 49°23' W 123°17'0 1.0
2017-Oct-17 21:00N 49°23' W 123°16'0 0.0
2017-Oct-17 20:30N 49°23' W 123°16'2 4.7
2017-Oct-17 20:00N 49°23' W 123°20'2 4.7
2017-Oct-17 19:30N 49°23' W 123°16'2 4.7
2017-Oct-17 19:00N 49°23' W 123°20'2 4.6
2017-Oct-17 18:30N 49°23' W 123°16'2 4.6
2017-Oct-17 18:00N 49°23' W 123°20'2 4.7
2017-Oct-17 17:30N 49°23' W 123°16'2 4.7
2017-Oct-17 17:00N 49°23' W 123°20'2 3.3
2017-Oct-17 16:30N 49°23' W 123°17'0 1.0
2017-Oct-17 16:01N 49°23' W 123°18'1 2.2
2017-Oct-17 15:30N 49°23' W 123°20'2 4.5
2017-Oct-17 15:00N 49°23' W 123°16'2 4.6
2017-Oct-17 14:30N 49°23' W 123°20'2 4.6
2017-Oct-17 14:00N 49°23' W 123°16'2 4.5
2017-Oct-17 13:30N 49°23' W 123°20'2 4.4
2017-Oct-17 13:00N 49°23' W 123°16'2 4.5
2017-Oct-17 12:30N 49°23' W 123°20'2 3.5
2017-Oct-17 12:00N 49°23' W 123°17'1 1.2
2017-Oct-17 11:25N 49°23' W 123°16'0 0.0
2017-Oct-17 10:49N 49°23' W 123°16'0 0.0
2017-Oct-17 10:22N 49°23' W 123°16'0 0.0
2017-Oct-17 09:58N 49°23' W 123°16'0 0.0
2017-Oct-17 09:28N 49°23' W 123°16'0 0.0
2017-Oct-17 08:40N 49°23' W 123°16'0 0.0
2017-Oct-17 08:22N 49°23' W 123°16'0 0.0
2017-Oct-17 07:58N 49°23' W 123°16'0 0.0
2017-Oct-17 07:28N 49°23' W 123°16'0 0.0
2017-Oct-17 06:55N 49°23' W 123°16'0 0.0
2017-Oct-17 06:25N 49°23' W 123°16'0 0.0
2017-Oct-17 05:58N 49°23' W 123°16'0 0.0
2017-Oct-17 05:28N 49°23' W 123°16'2 5.2
2017-Oct-17 05:00N 49°23' W 123°20'2 4.6
2017-Oct-17 04:30N 49°23' W 123°16'2 4.6
2017-Oct-17 04:01N 49°23' W 123°20'2 4.6
2017-Oct-17 03:31N 49°23' W 123°16'2 4.5
2017-Oct-17 03:01N 49°23' W 123°20'2 4.4
2017-Oct-17 02:30N 49°23' W 123°16'2 4.5
2017-Oct-17 02:00N 49°23' W 123°20'2 4.5
2017-Oct-17 01:31N 49°23' W 123°16'2 4.0
2017-Oct-17 00:56N 49°23' W 123°20'2 5.2
2017-Oct-17 00:29N 49°23' W 123°16'2 3.9
2017-Oct-16 23:53N 49°23' W 123°20'2 6.1
2017-Oct-16 23:31N 49°23' W 123°16'2 4.5
2017-Oct-16 23:00N 49°23' W 123°20'2 4.7
2017-Oct-16 22:30N 49°23' W 123°16'2 3.7
2017-Oct-16 21:53N 49°23' W 123°20'2 6.0
2017-Oct-16 21:31N 49°23' W 123°16'0 0.7
2017-Oct-16 20:59N 49°23' W 123°16'0 0.0
2017-Oct-16 20:29N 49°23' W 123°16'0 0.9
2017-Oct-16 20:01N 49°23' W 123°17'2 4.2
2017-Oct-16 19:30N 49°23' W 123°20'2 4.4
2017-Oct-16 19:01N 49°23' W 123°16'2 4.6
2017-Oct-16 18:30N 49°23' W 123°20'2 4.7
2017-Oct-16 18:00N 49°23' W 123°16'2 4.6
2017-Oct-16 17:30N 49°23' W 123°20'2 4.6
2017-Oct-16 17:00N 49°23' W 123°16'2 4.6
2017-Oct-16 16:31N 49°23' W 123°20'2 4.6
2017-Oct-16 16:00N 49°23' W 123°16'2 4.6
2017-Oct-16 15:30N 49°23' W 123°20'2 4.7
2017-Oct-16 15:00N 49°23' W 123°16'0 0.0
2017-Oct-16 14:01N 49°23' W 123°16'2 4.6
2017-Oct-16 13:30N 49°23' W 123°20'2 4.6
2017-Oct-16 13:00N 49°23' W 123°16'2 4.5
2017-Oct-16 12:30N 49°23' W 123°20'2 4.1
2017-Oct-16 12:00N 49°23' W 123°17'1 0.9
2017-Oct-16 11:27N 49°23' W 123°16'0 0.0
2017-Oct-16 11:00N 49°23' W 123°16'0 0.0
2017-Oct-16 10:30N 49°23' W 123°16'0 0.0
2017-Oct-16 10:00N 49°23' W 123°16'0 0.0
2017-Oct-16 09:30N 49°23' W 123°16'0 0.0
2017-Oct-16 09:00N 49°23' W 123°16'0 0.0
2017-Oct-16 08:30N 49°23' W 123°16'0 0.0
2017-Oct-16 08:00N 49°23' W 123°16'0 0.0
2017-Oct-16 07:30N 49°23' W 123°16'0 0.0
2017-Oct-16 07:00N 49°23' W 123°16'0 0.0
2017-Oct-16 06:24N 49°23' W 123°16'0 0.0
2017-Oct-16 06:00N 49°23' W 123°16'0 0.0
2017-Oct-16 05:30N 49°23' W 123°16'2 4.8
2017-Oct-16 05:00N 49°23' W 123°20'2 4.7
2017-Oct-16 04:30N 49°23' W 123°16'2 4.5
2017-Oct-16 04:00N 49°23' W 123°20'0 0.2
2017-Oct-16 03:30N 49°23' W 123°20'0 0.0
2017-Oct-16 03:00N 49°23' W 123°20'2 4.7
2017-Oct-16 02:30N 49°23' W 123°16'2 4.7
2017-Oct-16 02:00N 49°23' W 123°20'2 4.6
2017-Oct-16 01:30N 49°23' W 123°16'2 4.6
2017-Oct-16 01:00N 49°23' W 123°20'2 4.5
2017-Oct-16 00:30N 49°23' W 123°16'2 4.6
2017-Oct-16 00:00N 49°23' W 123°20'2 4.6
2017-Oct-15 23:30N 49°23' W 123°16'2 4.6
2017-Oct-15 23:00N 49°23' W 123°20'2 4.6
2017-Oct-15 22:30N 49°23' W 123°16'2 4.6
2017-Oct-15 22:00N 49°23' W 123°20'2 3.5
2017-Oct-15 21:30N 49°23' W 123°17'1 1.5
2017-Oct-15 21:00N 49°23' W 123°16'0 0.0
2017-Oct-15 20:30N 49°23' W 123°16'0 0.0
2017-Oct-15 20:00N 49°23' W 123°16'2 4.6
2017-Oct-15 19:30N 49°23' W 123°20'2 4.7
2017-Oct-15 19:01N 49°23' W 123°16'2 4.6
2017-Oct-15 18:30N 49°23' W 123°20'2 4.6
2017-Oct-15 18:00N 49°23' W 123°16'2 4.5
2017-Oct-15 17:31N 49°23' W 123°20'2 4.5
2017-Oct-15 17:01N 49°23' W 123°16'2 4.6
2017-Oct-15 16:30N 49°23' W 123°20'2 4.6
2017-Oct-15 16:01N 49°23' W 123°16'2 4.6
2017-Oct-15 15:30N 49°23' W 123°20'2 4.6
2017-Oct-15 15:00N 49°23' W 123°16'0 0.0
2017-Oct-15 14:01N 49°23' W 123°16'2 4.6
2017-Oct-15 13:31N 49°23' W 123°20'2 4.7
2017-Oct-15 13:01N 49°23' W 123°16'0 0.4
2017-Oct-15 12:29N 49°23' W 123°16'0 0.0
2017-Oct-15 11:59N 49°23' W 123°16'0 0.0
2017-Oct-15 11:29N 49°23' W 123°16'0 0.0
2017-Oct-15 10:59N 49°23' W 123°16'0 0.0
2017-Oct-15 10:29N 49°23' W 123°16'0 0.0
2017-Oct-15 09:56N 49°23' W 123°16'0 0.0
2017-Oct-15 09:26N 49°23' W 123°16'0 0.0
2017-Oct-15 08:59N 49°23' W 123°16'0 0.0
2017-Oct-15 08:29N 49°23' W 123°16'0 0.0
2017-Oct-15 07:59N 49°23' W 123°16'0 0.0
2017-Oct-15 07:29N 49°23' W 123°16'0 0.0
2017-Oct-15 06:59N 49°23' W 123°16'0 0.0
2017-Oct-15 06:29N 49°23' W 123°16'0 0.0
2017-Oct-15 05:53N 49°23' W 123°16'0 0.0
2017-Oct-15 05:26N 49°23' W 123°16'2 5.5
2017-Oct-15 05:00N 49°23' W 123°20'2 4.5
2017-Oct-15 04:30N 49°23' W 123°16'2 4.5
2017-Oct-15 04:00N 49°23' W 123°20'2 4.5
2017-Oct-15 03:30N 49°23' W 123°16'2 4.5
2017-Oct-15 03:00N 49°23' W 123°20'0 0.1
2017-Oct-15 02:30N 49°23' W 123°20'0 0.0
2017-Oct-15 02:00N 49°23' W 123°20'2 4.6
2017-Oct-15 01:30N 49°23' W 123°16'2 4.6
2017-Oct-15 01:01N 49°23' W 123°20'2 4.6
2017-Oct-15 00:30N 49°23' W 123°16'2 4.6
2017-Oct-15 00:00N 49°23' W 123°20'2 4.6
2017-Oct-14 23:30N 49°23' W 123°16'2 4.5
2017-Oct-14 23:00N 49°23' W 123°20'2 4.5
2017-Oct-14 22:30N 49°23' W 123°16'2 4.5
2017-Oct-14 22:00N 49°23' W 123°20'2 3.9
2017-Oct-14 21:30N 49°23' W 123°17'1 1.0
2017-Oct-14 20:58N 49°23' W 123°16'0 0.0
2017-Oct-14 20:28N 49°23' W 123°16'0 0.3
2017-Oct-14 20:00N 49°23' W 123°16'2 4.6
2017-Oct-14 19:30N 49°23' W 123°20'2 4.6
2017-Oct-14 19:00N 49°23' W 123°16'2 4.6
2017-Oct-14 18:30N 49°23' W 123°20'2 4.6
2017-Oct-14 18:00N 49°23' W 123°16'2 4.6
2017-Oct-14 17:30N 49°23' W 123°20'2 4.6
2017-Oct-14 17:00N 49°23' W 123°16'2 4.6
2017-Oct-14 16:31N 49°23' W 123°20'2 4.6
2017-Oct-14 16:01N 49°23' W 123°16'2 4.4
2017-Oct-14 15:30N 49°23' W 123°20'2 4.5
2017-Oct-14 15:01N 49°23' W 123°16'2 4.7
2017-Oct-14 14:31N 49°23' W 123°20'2 4.7
2017-Oct-14 14:00N 49°23' W 123°16'2 4.3
2017-Oct-14 13:28N 49°23' W 123°20'2 5.1
2017-Oct-14 13:00N 49°23' W 123°16'0 0.2
2017-Oct-14 12:29N 49°23' W 123°16'0 0.0
2017-Oct-14 11:53N 49°23' W 123°16'0 0.0
2017-Oct-14 11:29N 49°23' W 123°16'0 0.0
2017-Oct-14 10:53N 49°23' W 123°16'0 0.0
2017-Oct-14 10:29N 49°23' W 123°16'0 0.0
2017-Oct-14 09:59N 49°23' W 123°16'0 0.0
2017-Oct-14 09:29N 49°23' W 123°16'0 0.0
2017-Oct-14 08:59N 49°23' W 123°16'0 0.0
2017-Oct-14 08:29N 49°23' W 123°16'0 0.0
2017-Oct-14 07:59N 49°23' W 123°16'0 0.0
2017-Oct-14 07:29N 49°23' W 123°16'0 0.0
2017-Oct-14 06:59N 49°23' W 123°16'0 0.0
2017-Oct-14 06:29N 49°23' W 123°16'0 0.0
2017-Oct-14 05:59N 49°23' W 123°16'0 0.0
2017-Oct-14 05:29N 49°23' W 123°16'2 4.8
2017-Oct-14 05:00N 49°23' W 123°20'2 4.5
2017-Oct-14 04:31N 49°23' W 123°16'2 4.4
2017-Oct-14 04:00N 49°23' W 123°20'2 4.5
2017-Oct-14 03:30N 49°23' W 123°16'2 4.5
2017-Oct-14 03:00N 49°23' W 123°20'2 4.5
2017-Oct-14 02:30N 49°23' W 123°16'2 4.7
2017-Oct-14 02:00N 49°23' W 123°20'2 4.2
2017-Oct-14 01:28N 49°23' W 123°16'2 4.8
2017-Oct-14 00:59N 49°23' W 123°20'2 5.0
2017-Oct-14 00:30N 49°23' W 123°16'2 4.6
2017-Oct-14 00:00N 49°23' W 123°20'2 4.5
2017-Oct-13 23:29N 49°23' W 123°16'2 4.8
2017-Oct-13 23:00N 49°23' W 123°20'2 4.6
2017-Oct-13 22:30N 49°23' W 123°16'2 4.6
2017-Oct-13 22:00N 49°23' W 123°20'2 3.6
2017-Oct-13 21:30N 49°23' W 123°17'1 1.3
2017-Oct-13 21:00N 49°23' W 123°16'0 0.0
2017-Oct-13 20:29N 49°23' W 123°16'0 0.0
2017-Oct-13 19:59N 49°23' W 123°16'2 4.9
2017-Oct-13 19:31N 49°23' W 123°20'2 4.6
2017-Oct-13 19:01N 49°23' W 123°16'2 4.4
2017-Oct-13 18:30N 49°23' W 123°20'2 4.5
2017-Oct-13 18:01N 49°23' W 123°16'2 4.5
2017-Oct-13 17:31N 49°23' W 123°20'2 4.5
2017-Oct-13 17:01N 49°23' W 123°16'2 4.6
2017-Oct-13 16:31N 49°23' W 123°20'2 4.6
2017-Oct-13 16:00N 49°23' W 123°16'2 4.6
2017-Oct-13 15:31N 49°23' W 123°20'2 4.6
2017-Oct-13 15:01N 49°23' W 123°16'2 4.6
2017-Oct-13 14:31N 49°23' W 123°20'2 4.6
2017-Oct-13 14:01N 49°23' W 123°16'2 4.6
2017-Oct-13 13:30N 49°23' W 123°20'2 4.6
2017-Oct-13 13:01N 49°23' W 123°16'2 4.6
2017-Oct-13 12:30N 49°23' W 123°20'2 4.6
2017-Oct-13 12:00N 49°23' W 123°16'0 0.2
2017-Oct-13 11:30N 49°23' W 123°16'0 0.0
2017-Oct-13 10:59N 49°23' W 123°16'0 0.0
2017-Oct-13 10:29N 49°23' W 123°16'0 0.0
2017-Oct-13 09:59N 49°23' W 123°16'0 0.0
2017-Oct-13 09:26N 49°23' W 123°16'0 0.0
2017-Oct-13 08:59N 49°23' W 123°16'0 0.0
2017-Oct-13 08:29N 49°23' W 123°16'0 0.0
2017-Oct-13 07:59N 49°23' W 123°16'0 0.0
2017-Oct-13 07:29N 49°23' W 123°16'0 0.0
2017-Oct-13 06:59N 49°23' W 123°16'0 0.0
2017-Oct-13 06:29N 49°23' W 123°16'0 0.0
2017-Oct-13 05:59N 49°23' W 123°16'0 0.0
2017-Oct-13 05:29N 49°23' W 123°16'2 4.5
2017-Oct-13 05:01N 49°23' W 123°20'2 4.2
2017-Oct-13 04:31N 49°23' W 123°16'2 4.3
2017-Oct-13 04:01N 49°23' W 123°20'2 4.4
2017-Oct-13 03:30N 49°23' W 123°16'2 4.5
2017-Oct-13 03:00N 49°23' W 123°20'2 4.4
2017-Oct-13 02:30N 49°23' W 123°16'2 4.6
2017-Oct-13 02:00N 49°23' W 123°20'2 4.6
2017-Oct-13 01:31N 49°23' W 123°16'2 4.6
2017-Oct-13 01:00N 49°23' W 123°20'  
Track history (hours):
 
Tides and Currents Weather Stations Pressure Air Temp Water Temp Dewpoint Dewpoint Depression Visibility Wind Speed Wind Dir Waves Ship Positions

Queen Of Capilano

Last reported at 2017-Oct-23 00:30 UTC. Time now 2017-Oct-23 00:44 UTC.
Position N 49°23' W 123°16'.

Length 96 m; draft 4.4 m.

Type: Passenger vessel. MMSI: 316001247.

Date/timePositionNaut miles runAvg speedWind from/ knotsBaromVisibWave heightAir tempDewpointWater temp
2017-Oct-23 00:30N 49°23' W 123°16'2 4.6
2017-Oct-23 00:01N 49°23' W 123°20'2 4.5
2017-Oct-22 23:31N 49°23' W 123°16'2 4.5
2017-Oct-22 23:01N 49°23' W 123°20'2 4.5
2017-Oct-22 22:31N 49°23' W 123°16'2 4.5
2017-Oct-22 22:01N 49°23' W 123°20'1 3.0
2017-Oct-22 21:31N 49°23' W 123°18'1 1.7
2017-Oct-22 21:00N 49°23' W 123°16'0 0.0
2017-Oct-22 20:28N 49°23' W 123°16'0 0.0
2017-Oct-22 19:58N 49°23' W 123°16'2 5.1
2017-Oct-22 19:31N 49°23' W 123°20'2 4.6
2017-Oct-22 19:01N 49°23' W 123°16'2 4.6
2017-Oct-22 18:30N 49°23' W 123°20'2 4.6
2017-Oct-22 18:01N 49°23' W 123°16'2 4.5
2017-Oct-22 17:31N 49°23' W 123°20'2 4.5
2017-Oct-22 17:01N 49°23' W 123°16'2 4.6
2017-Oct-22 16:30N 49°23' W 123°20'2 4.6
2017-Oct-22 16:01N 49°23' W 123°16'2 4.6
2017-Oct-22 15:30N 49°23' W 123°20'2 4.6
2017-Oct-22 15:00N 49°23' W 123°16'0 0.0
2017-Oct-22 14:30N 49°23' W 123°16'0 0.0
2017-Oct-22 14:00N 49°23' W 123°16'2 4.6
2017-Oct-22 13:31N 49°23' W 123°20'2 4.6
2017-Oct-22 13:01N 49°23' W 123°16'0 0.4
2017-Oct-22 12:30N 49°23' W 123°16'0 0.0
2017-Oct-22 12:00N 49°23' W 123°16'0 0.0
2017-Oct-22 11:27N 49°23' W 123°16'0 0.0
2017-Oct-22 10:57N 49°23' W 123°16'0 0.0
2017-Oct-22 10:30N 49°23' W 123°16'0 0.0
2017-Oct-22 10:00N 49°23' W 123°16'0 0.0
2017-Oct-22 09:30N 49°23' W 123°16'0 0.0
2017-Oct-22 09:00N 49°23' W 123°16'0 0.0
2017-Oct-22 08:30N 49°23' W 123°16'0 0.0
2017-Oct-22 07:54N 49°23' W 123°16'0 0.0
2017-Oct-22 07:30N 49°23' W 123°16'0 0.0
2017-Oct-22 07:00N 49°23' W 123°16'0 0.0
2017-Oct-22 06:30N 49°23' W 123°16'0 0.0
2017-Oct-22 06:00N 49°23' W 123°16'0 0.0
2017-Oct-22 05:21N 49°23' W 123°16'2 6.8
2017-Oct-22 05:00N 49°23' W 123°20'2 4.6
2017-Oct-22 04:30N 49°23' W 123°16'2 4.4
2017-Oct-22 04:01N 49°23' W 123°20'2 4.4
2017-Oct-22 03:30N 49°23' W 123°16'2 4.6
2017-Oct-22 03:00N 49°23' W 123°20'0 0.0
2017-Oct-22 02:30N 49°23' W 123°20'0 0.0
2017-Oct-22 02:01N 49°23' W 123°20'2 4.6
2017-Oct-22 01:30N 49°23' W 123°16'2 4.6
2017-Oct-22 01:00N 49°23' W 123°20'2 4.6
2017-Oct-22 00:30N 49°23' W 123°16'2 4.6
2017-Oct-22 00:00N 49°23' W 123°20'2 4.6
2017-Oct-21 23:30N 49°23' W 123°16'2 4.5
2017-Oct-21 23:00N 49°23' W 123°20'2 4.5
2017-Oct-21 22:30N 49°23' W 123°16'2 4.5
2017-Oct-21 22:00N 49°23' W 123°20'2 3.2
2017-Oct-21 21:30N 49°23' W 123°17'1 1.7
2017-Oct-21 21:00N 49°23' W 123°16'0 0.0
2017-Oct-21 20:24N 49°23' W 123°16'0 0.0
2017-Oct-21 20:00N 49°23' W 123°16'2 4.7
2017-Oct-21 19:31N 49°23' W 123°20'2 4.6
2017-Oct-21 19:00N 49°23' W 123°16'2 4.6
2017-Oct-21 18:30N 49°23' W 123°20'2 4.6
2017-Oct-21 18:01N 49°23' W 123°16'2 4.5
2017-Oct-21 17:31N 49°23' W 123°20'2 4.4
2017-Oct-21 17:00N 49°23' W 123°16'2 4.5
2017-Oct-21 16:31N 49°23' W 123°20'2 4.5
2017-Oct-21 16:01N 49°23' W 123°16'2 4.5
2017-Oct-21 15:31N 49°23' W 123°20'2 4.5
2017-Oct-21 15:01N 49°23' W 123°16'2 4.6
2017-Oct-21 14:31N 49°23' W 123°20'0 0.0
2017-Oct-21 13:31N 49°23' W 123°20'2 4.5
2017-Oct-21 13:01N 49°23' W 123°16'0 0.3
2017-Oct-21 12:31N 49°23' W 123°16'0 0.0
2017-Oct-21 11:58N 49°23' W 123°16'0 0.0
2017-Oct-21 11:28N 49°23' W 123°16'0 0.0
2017-Oct-21 10:58N 49°23' W 123°16'0 0.0
2017-Oct-21 10:28N 49°23' W 123°16'0 0.0
2017-Oct-21 09:58N 49°23' W 123°16'0 0.0
2017-Oct-21 09:28N 49°23' W 123°16'0 0.0
2017-Oct-21 08:58N 49°23' W 123°16'0 0.0
2017-Oct-21 08:28N 49°23' W 123°16'0 0.0
2017-Oct-21 07:55N 49°23' W 123°16'0 0.0
2017-Oct-21 07:28N 49°23' W 123°16'0 0.0
2017-Oct-21 06:49N 49°23' W 123°16'0 0.0
2017-Oct-21 06:28N 49°23' W 123°16'0 0.0
2017-Oct-21 05:58N 49°23' W 123°16'0 0.0
2017-Oct-21 05:28N 49°23' W 123°16'2 5.1
2017-Oct-21 05:01N 49°23' W 123°20'2 4.7
2017-Oct-21 04:31N 49°23' W 123°16'2 4.6
2017-Oct-21 04:00N 49°23' W 123°20'2 4.6
2017-Oct-21 03:31N 49°23' W 123°16'2 4.5
2017-Oct-21 03:01N 49°23' W 123°20'2 4.5
2017-Oct-21 02:30N 49°23' W 123°16'2 4.4
2017-Oct-21 02:01N 49°23' W 123°20'2 4.4
2017-Oct-21 01:30N 49°23' W 123°16'2 4.6
2017-Oct-21 01:00N 49°23' W 123°20'2 4.6
2017-Oct-21 00:30N 49°23' W 123°16'2 4.6
2017-Oct-21 00:01N 49°23' W 123°20'2 4.6
2017-Oct-20 23:30N 49°23' W 123°16'2 4.6
2017-Oct-20 23:00N 49°23' W 123°20'2 4.6
2017-Oct-20 22:30N 49°23' W 123°16'2 4.6
2017-Oct-20 22:00N 49°23' W 123°20'2 3.7
2017-Oct-20 21:31N 49°23' W 123°17'1 1.3
2017-Oct-20 21:01N 49°23' W 123°16'0 0.0
2017-Oct-20 20:29N 49°23' W 123°16'0 0.0
2017-Oct-20 19:59N 49°23' W 123°16'2 4.8
2017-Oct-20 19:30N 49°23' W 123°20'2 4.6
2017-Oct-20 19:01N 49°23' W 123°16'2 4.6
2017-Oct-20 18:30N 49°23' W 123°20'2 4.6
2017-Oct-20 18:00N 49°23' W 123°16'2 4.6
2017-Oct-20 17:30N 49°23' W 123°20'2 4.6
2017-Oct-20 17:00N 49°23' W 123°16'2 4.6
2017-Oct-20 16:31N 49°23' W 123°20'2 4.6
2017-Oct-20 16:01N 49°23' W 123°16'2 4.6
2017-Oct-20 15:30N 49°23' W 123°20'2 4.6
2017-Oct-20 15:00N 49°23' W 123°16'2 4.6
2017-Oct-20 14:30N 49°23' W 123°20'0 0.1
2017-Oct-20 13:31N 49°23' W 123°20'2 4.5
2017-Oct-20 13:00N 49°23' W 123°16'2 4.4
2017-Oct-20 12:30N 49°23' W 123°20'2 3.8
2017-Oct-20 12:00N 49°23' W 123°17'1 1.0
2017-Oct-20 11:30N 49°23' W 123°16'0 0.0
2017-Oct-20 11:00N 49°23' W 123°16'0 0.0
2017-Oct-20 10:30N 49°23' W 123°16'0 0.0
2017-Oct-20 10:00N 49°23' W 123°16'0 0.0
2017-Oct-20 09:30N 49°23' W 123°16'0 0.0
2017-Oct-20 09:00N 49°23' W 123°16'0 0.0
2017-Oct-20 08:30N 49°23' W 123°16'0 0.0
2017-Oct-20 08:00N 49°23' W 123°16'0 0.0
2017-Oct-20 07:30N 49°23' W 123°16'0 0.0
2017-Oct-20 07:00N 49°23' W 123°16'0 0.0
2017-Oct-20 06:30N 49°23' W 123°16'0 0.0
2017-Oct-20 06:00N 49°23' W 123°16'0 0.0
2017-Oct-20 05:30N 49°23' W 123°16'2 4.8
2017-Oct-20 05:01N 49°23' W 123°20'2 4.7
2017-Oct-20 04:30N 49°23' W 123°16'2 4.5
2017-Oct-20 04:01N 49°23' W 123°20'2 4.5
2017-Oct-20 03:31N 49°23' W 123°16'2 4.5
2017-Oct-20 03:01N 49°23' W 123°20'2 4.5
2017-Oct-20 02:31N 49°23' W 123°16'2 4.6
2017-Oct-20 02:01N 49°23' W 123°20'2 4.6
2017-Oct-20 01:30N 49°23' W 123°16'2 4.6
2017-Oct-20 01:01N 49°23' W 123°20'2 4.6
2017-Oct-20 00:31N 49°23' W 123°16'2 4.6
2017-Oct-20 00:01N 49°23' W 123°20'2 4.6
2017-Oct-19 23:30N 49°23' W 123°16'2 4.6
2017-Oct-19 23:00N 49°23' W 123°20'2 4.6
2017-Oct-19 22:30N 49°23' W 123°16'2 4.6
2017-Oct-19 22:01N 49°23' W 123°20'2 3.1
2017-Oct-19 21:31N 49°23' W 123°18'1 1.8
2017-Oct-19 21:00N 49°23' W 123°16'0 0.0
2017-Oct-19 20:28N 49°23' W 123°16'0 0.0
2017-Oct-19 19:58N 49°23' W 123°16'2 5.0
2017-Oct-19 19:30N 49°23' W 123°20'2 4.7
2017-Oct-19 19:01N 49°23' W 123°16'2 4.7
2017-Oct-19 18:30N 49°23' W 123°20'2 4.7
2017-Oct-19 18:01N 49°23' W 123°16'2 4.6
2017-Oct-19 17:30N 49°23' W 123°20'2 4.6
2017-Oct-19 17:01N 49°23' W 123°16'2 4.6
2017-Oct-19 16:31N 49°23' W 123°20'2 4.6
2017-Oct-19 16:01N 49°23' W 123°16'2 4.6
2017-Oct-19 15:31N 49°23' W 123°20'2 4.6
2017-Oct-19 15:00N 49°23' W 123°16'2 4.6
2017-Oct-19 14:31N 49°23' W 123°20'2 4.6
2017-Oct-19 14:01N 49°23' W 123°16'2 4.5
2017-Oct-19 13:31N 49°23' W 123°20'2 4.5
2017-Oct-19 13:01N 49°23' W 123°16'2 4.5
2017-Oct-19 12:31N 49°23' W 123°20'2 4.4
2017-Oct-19 12:00N 49°23' W 123°16'0 0.8
2017-Oct-19 11:29N 49°23' W 123°16'0 0.0
2017-Oct-19 10:56N 49°23' W 123°16'0 0.0
2017-Oct-19 10:23N 49°23' W 123°16'0 0.0
2017-Oct-19 09:59N 49°23' W 123°16'0 0.0
2017-Oct-19 09:29N 49°23' W 123°16'0 0.0
2017-Oct-19 08:59N 49°23' W 123°16'0 0.0
2017-Oct-19 08:29N 49°23' W 123°16'0 0.0
2017-Oct-19 07:59N 49°23' W 123°16'0 0.0
2017-Oct-19 07:29N 49°23' W 123°16'0 0.0
2017-Oct-19 06:59N 49°23' W 123°16'0 0.0
2017-Oct-19 06:23N 49°23' W 123°16'0 0.0
2017-Oct-19 05:59N 49°23' W 123°16'0 0.0
2017-Oct-19 05:26N 49°23' W 123°16'2 5.4
2017-Oct-19 05:00N 49°23' W 123°20'2 4.6
2017-Oct-19 04:30N 49°23' W 123°16'2 4.5
2017-Oct-19 04:00N 49°23' W 123°20'2 4.4
2017-Oct-19 03:31N 49°23' W 123°16'1 2.2
2017-Oct-19 03:01N 49°23' W 123°18'0 0.3
2017-Oct-19 02:30N 49°23' W 123°18'1 1.3
2017-Oct-19 02:00N 49°23' W 123°17'2 3.2
2017-Oct-19 01:30N 49°23' W 123°19'2 4.1
2017-Oct-19 01:00N 49°23' W 123°16'1 1.9
2017-Oct-19 00:31N 49°23' W 123°18'1 2.0
2017-Oct-19 00:01N 49°23' W 123°19'2 3.9
2017-Oct-18 23:30N 49°23' W 123°16'2 4.2
2017-Oct-18 23:00N 49°23' W 123°20'2 4.3
2017-Oct-18 22:31N 49°23' W 123°16'2 4.6
2017-Oct-18 22:00N 49°23' W 123°20'2 3.2
2017-Oct-18 21:30N 49°23' W 123°17'1 1.7
2017-Oct-18 21:00N 49°23' W 123°16'0 0.0
2017-Oct-18 20:30N 49°23' W 123°16'2 3.0
2017-Oct-18 20:00N 49°23' W 123°19'1 1.2
2017-Oct-18 19:30N 49°23' W 123°19'2 3.6
2017-Oct-18 19:00N 49°23' W 123°17'2 4.2
2017-Oct-18 18:30N 49°23' W 123°20'2 4.6
2017-Oct-18 18:00N 49°23' W 123°16'2 4.6
2017-Oct-18 17:30N 49°23' W 123°20'2 4.6
2017-Oct-18 17:00N 49°23' W 123°16'2 4.6
2017-Oct-18 16:30N 49°23' W 123°20'2 4.6
2017-Oct-18 16:00N 49°23' W 123°16'2 4.6
2017-Oct-18 15:30N 49°23' W 123°20'2 4.6
2017-Oct-18 15:00N 49°23' W 123°16'0 0.1
2017-Oct-18 14:00N 49°23' W 123°16'2 4.5
2017-Oct-18 13:30N 49°23' W 123°20'2 4.5
2017-Oct-18 13:00N 49°23' W 123°16'2 4.4
2017-Oct-18 12:30N 49°23' W 123°20'2 4.0
2017-Oct-18 12:00N 49°23' W 123°17'0 0.8
2017-Oct-18 11:29N 49°23' W 123°16'0 0.0
2017-Oct-18 10:59N 49°23' W 123°16'0 0.0
2017-Oct-18 10:29N 49°23' W 123°16'0 0.0
2017-Oct-18 09:59N 49°23' W 123°16'0 0.0
2017-Oct-18 09:29N 49°23' W 123°16'0 0.0
2017-Oct-18 08:59N 49°23' W 123°16'0 0.0
2017-Oct-18 08:29N 49°23' W 123°16'0 0.0
2017-Oct-18 07:59N 49°23' W 123°16'0 0.0
2017-Oct-18 07:29N 49°23' W 123°16'0 0.0
2017-Oct-18 06:59N 49°23' W 123°16'0 0.0
2017-Oct-18 06:26N 49°23' W 123°16'0 0.0
2017-Oct-18 05:59N 49°23' W 123°16'0 0.0
2017-Oct-18 05:29N 49°23' W 123°16'2 4.9
2017-Oct-18 05:00N 49°23' W 123°20'2 4.6
2017-Oct-18 04:30N 49°23' W 123°16'2 4.4
2017-Oct-18 04:00N 49°23' W 123°20'2 4.5
2017-Oct-18 03:31N 49°23' W 123°16'2 4.5
2017-Oct-18 03:01N 49°23' W 123°20'2 4.4
2017-Oct-18 02:30N 49°23' W 123°16'2 4.6
2017-Oct-18 02:01N 49°23' W 123°20'2 4.6
2017-Oct-18 01:30N 49°23' W 123°16'2 4.6
2017-Oct-18 01:00N 49°23' W 123°20'2 4.6
2017-Oct-18 00:30N 49°23' W 123°16'2 4.6
2017-Oct-18 00:01N 49°23' W 123°20'2 4.5
2017-Oct-17 23:31N 49°23' W 123°16'2 4.6
2017-Oct-17 23:00N 49°23' W 123°20'2 4.6
2017-Oct-17 22:31N 49°23' W 123°16'2 4.4
2017-Oct-17 22:00N 49°23' W 123°20'2 3.9
2017-Oct-17 21:31N 49°23' W 123°17'0 1.0
2017-Oct-17 21:00N 49°23' W 123°16'0 0.0
2017-Oct-17 20:30N 49°23' W 123°16'2 4.7
2017-Oct-17 20:00N 49°23' W 123°20'2 4.7
2017-Oct-17 19:30N 49°23' W 123°16'2 4.7
2017-Oct-17 19:00N 49°23' W 123°20'2 4.6
2017-Oct-17 18:30N 49°23' W 123°16'2 4.6
2017-Oct-17 18:00N 49°23' W 123°20'2 4.7
2017-Oct-17 17:30N 49°23' W 123°16'2 4.7
2017-Oct-17 17:00N 49°23' W 123°20'2 3.3
2017-Oct-17 16:30N 49°23' W 123°17'0 1.0
2017-Oct-17 16:01N 49°23' W 123°18'1 2.2
2017-Oct-17 15:30N 49°23' W 123°20'2 4.5
2017-Oct-17 15:00N 49°23' W 123°16'2 4.6
2017-Oct-17 14:30N 49°23' W 123°20'2 4.6
2017-Oct-17 14:00N 49°23' W 123°16'2 4.5
2017-Oct-17 13:30N 49°23' W 123°20'2 4.4
2017-Oct-17 13:00N 49°23' W 123°16'2 4.5
2017-Oct-17 12:30N 49°23' W 123°20'2 3.5
2017-Oct-17 12:00N 49°23' W 123°17'1 1.2
2017-Oct-17 11:25N 49°23' W 123°16'0 0.0
2017-Oct-17 10:49N 49°23' W 123°16'0 0.0
2017-Oct-17 10:22N 49°23' W 123°16'0 0.0
2017-Oct-17 09:58N 49°23' W 123°16'0 0.0
2017-Oct-17 09:28N 49°23' W 123°16'0 0.0
2017-Oct-17 08:40N 49°23' W 123°16'0 0.0
2017-Oct-17 08:22N 49°23' W 123°16'0 0.0
2017-Oct-17 07:58N 49°23' W 123°16'0 0.0
2017-Oct-17 07:28N 49°23' W 123°16'0 0.0
2017-Oct-17 06:55N 49°23' W 123°16'0 0.0
2017-Oct-17 06:25N 49°23' W 123°16'0 0.0
2017-Oct-17 05:58N 49°23' W 123°16'0 0.0
2017-Oct-17 05:28N 49°23' W 123°16'2 5.2
2017-Oct-17 05:00N 49°23' W 123°20'2 4.6
2017-Oct-17 04:30N 49°23' W 123°16'2 4.6
2017-Oct-17 04:01N 49°23' W 123°20'2 4.6
2017-Oct-17 03:31N 49°23' W 123°16'2 4.5
2017-Oct-17 03:01N 49°23' W 123°20'2 4.4
2017-Oct-17 02:30N 49°23' W 123°16'2 4.5
2017-Oct-17 02:00N 49°23' W 123°20'2 4.5
2017-Oct-17 01:31N 49°23' W 123°16'2 4.0
2017-Oct-17 00:56N 49°23' W 123°20'2 5.2
2017-Oct-17 00:29N 49°23' W 123°16'2 3.9
2017-Oct-16 23:53N 49°23' W 123°20'2 6.1
2017-Oct-16 23:31N 49°23' W 123°16'2 4.5
2017-Oct-16 23:00N 49°23' W 123°20'2 4.7
2017-Oct-16 22:30N 49°23' W 123°16'2 3.7
2017-Oct-16 21:53N 49°23' W 123°20'2 6.0
2017-Oct-16 21:31N 49°23' W 123°16'0 0.7
2017-Oct-16 20:59N 49°23' W 123°16'0 0.0
2017-Oct-16 20:29N 49°23' W 123°16'0 0.9
2017-Oct-16 20:01N 49°23' W 123°17'2 4.2
2017-Oct-16 19:30N 49°23' W 123°20'2 4.4
2017-Oct-16 19:01N 49°23' W 123°16'2 4.6
2017-Oct-16 18:30N 49°23' W 123°20'2 4.7
2017-Oct-16 18:00N 49°23' W 123°16'2 4.6
2017-Oct-16 17:30N 49°23' W 123°20'2 4.6
2017-Oct-16 17:00N 49°23' W 123°16'2 4.6
2017-Oct-16 16:31N 49°23' W 123°20'2 4.6
2017-Oct-16 16:00N 49°23' W 123°16'2 4.6
2017-Oct-16 15:30N 49°23' W 123°20'2 4.7
2017-Oct-16 15:00N 49°23' W 123°16'0 0.0
2017-Oct-16 14:01N 49°23' W 123°16'2 4.6
2017-Oct-16 13:30N 49°23' W 123°20'2 4.6
2017-Oct-16 13:00N 49°23' W 123°16'2 4.5
2017-Oct-16 12:30N 49°23' W 123°20'2 4.1
2017-Oct-16 12:00N 49°23' W 123°17'1 0.9
2017-Oct-16 11:27N 49°23' W 123°16'0 0.0
2017-Oct-16 11:00N 49°23' W 123°16'0 0.0
2017-Oct-16 10:30N 49°23' W 123°16'0 0.0
2017-Oct-16 10:00N 49°23' W 123°16'0 0.0
2017-Oct-16 09:30N 49°23' W 123°16'0 0.0
2017-Oct-16 09:00N 49°23' W 123°16'0 0.0
2017-Oct-16 08:30N 49°23' W 123°16'0 0.0
2017-Oct-16 08:00N 49°23' W 123°16'0 0.0
2017-Oct-16 07:30N 49°23' W 123°16'0 0.0
2017-Oct-16 07:00N 49°23' W 123°16'0 0.0
2017-Oct-16 06:24N 49°23' W 123°16'0 0.0
2017-Oct-16 06:00N 49°23' W 123°16'0 0.0
2017-Oct-16 05:30N 49°23' W 123°16'2 4.8
2017-Oct-16 05:00N 49°23' W 123°20'2 4.7
2017-Oct-16 04:30N 49°23' W 123°16'2 4.5
2017-Oct-16 04:00N 49°23' W 123°20'0 0.2
2017-Oct-16 03:30N 49°23' W 123°20'0 0.0
2017-Oct-16 03:00N 49°23' W 123°20'2 4.7
2017-Oct-16 02:30N 49°23' W 123°16'2 4.7
2017-Oct-16 02:00N 49°23' W 123°20'2 4.6
2017-Oct-16 01:30N 49°23' W 123°16'2 4.6
2017-Oct-16 01:00N 49°23' W 123°20'2 4.5
2017-Oct-16 00:30N 49°23' W 123°16'2 4.6
2017-Oct-16 00:00N 49°23' W 123°20'2 4.6
2017-Oct-15 23:30N 49°23' W 123°16'2 4.6
2017-Oct-15 23:00N 49°23' W 123°20'2 4.6
2017-Oct-15 22:30N 49°23' W 123°16'2 4.6
2017-Oct-15 22:00N 49°23' W 123°20'2 3.5
2017-Oct-15 21:30N 49°23' W 123°17'1 1.5
2017-Oct-15 21:00N 49°23' W 123°16'0 0.0
2017-Oct-15 20:30N 49°23' W 123°16'0 0.0
2017-Oct-15 20:00N 49°23' W 123°16'2 4.6
2017-Oct-15 19:30N 49°23' W 123°20'2 4.7
2017-Oct-15 19:01N 49°23' W 123°16'2 4.6
2017-Oct-15 18:30N 49°23' W 123°20'2 4.6
2017-Oct-15 18:00N 49°23' W 123°16'2 4.5
2017-Oct-15 17:31N 49°23' W 123°20'2 4.5
2017-Oct-15 17:01N 49°23' W 123°16'2 4.6
2017-Oct-15 16:30N 49°23' W 123°20'2 4.6
2017-Oct-15 16:01N 49°23' W 123°16'2 4.6
2017-Oct-15 15:30N 49°23' W 123°20'2 4.6
2017-Oct-15 15:00N 49°23' W 123°16'0 0.0
2017-Oct-15 14:01N 49°23' W 123°16'2 4.6
2017-Oct-15 13:31N 49°23' W 123°20'2 4.7
2017-Oct-15 13:01N 49°23' W 123°16'0 0.4
2017-Oct-15 12:29N 49°23' W 123°16'0 0.0
2017-Oct-15 11:59N 49°23' W 123°16'0 0.0
2017-Oct-15 11:29N 49°23' W 123°16'0 0.0
2017-Oct-15 10:59N 49°23' W 123°16'0 0.0
2017-Oct-15 10:29N 49°23' W 123°16'0 0.0
2017-Oct-15 09:56N 49°23' W 123°16'0 0.0
2017-Oct-15 09:26N 49°23' W 123°16'0 0.0
2017-Oct-15 08:59N 49°23' W 123°16'0 0.0
2017-Oct-15 08:29N 49°23' W 123°16'0 0.0
2017-Oct-15 07:59N 49°23' W 123°16'0 0.0
2017-Oct-15 07:29N 49°23' W 123°16'0 0.0
2017-Oct-15 06:59N 49°23' W 123°16'0 0.0
2017-Oct-15 06:29N 49°23' W 123°16'0 0.0
2017-Oct-15 05:53N 49°23' W 123°16'0 0.0
2017-Oct-15 05:26N 49°23' W 123°16'2 5.5
2017-Oct-15 05:00N 49°23' W 123°20'2 4.5
2017-Oct-15 04:30N 49°23' W 123°16'2 4.5
2017-Oct-15 04:00N 49°23' W 123°20'2 4.5
2017-Oct-15 03:30N 49°23' W 123°16'2 4.5
2017-Oct-15 03:00N 49°23' W 123°20'0 0.1
2017-Oct-15 02:30N 49°23' W 123°20'0 0.0
2017-Oct-15 02:00N 49°23' W 123°20'2 4.6
2017-Oct-15 01:30N 49°23' W 123°16'2 4.6
2017-Oct-15 01:01N 49°23' W 123°20'2 4.6
2017-Oct-15 00:30N 49°23' W 123°16'2 4.6
2017-Oct-15 00:00N 49°23' W 123°20'2 4.6
2017-Oct-14 23:30N 49°23' W 123°16'2 4.5
2017-Oct-14 23:00N 49°23' W 123°20'2 4.5
2017-Oct-14 22:30N 49°23' W 123°16'2 4.5
2017-Oct-14 22:00N 49°23' W 123°20'2 3.9
2017-Oct-14 21:30N 49°23' W 123°17'1 1.0
2017-Oct-14 20:58N 49°23' W 123°16'0 0.0
2017-Oct-14 20:28N 49°23' W 123°16'0 0.3
2017-Oct-14 20:00N 49°23' W 123°16'2 4.6
2017-Oct-14 19:30N 49°23' W 123°20'2 4.6
2017-Oct-14 19:00N 49°23' W 123°16'2 4.6
2017-Oct-14 18:30N 49°23' W 123°20'2 4.6
2017-Oct-14 18:00N 49°23' W 123°16'2 4.6
2017-Oct-14 17:30N 49°23' W 123°20'2 4.6
2017-Oct-14 17:00N 49°23' W 123°16'2 4.6
2017-Oct-14 16:31N 49°23' W 123°20'2 4.6
2017-Oct-14 16:01N 49°23' W 123°16'2 4.4
2017-Oct-14 15:30N 49°23' W 123°20'2 4.5
2017-Oct-14 15:01N 49°23' W 123°16'2 4.7
2017-Oct-14 14:31N 49°23' W 123°20'2 4.7
2017-Oct-14 14:00N 49°23' W 123°16'2 4.3
2017-Oct-14 13:28N 49°23' W 123°20'2 5.1
2017-Oct-14 13:00N 49°23' W 123°16'0 0.2
2017-Oct-14 12:29N 49°23' W 123°16'0 0.0
2017-Oct-14 11:53N 49°23' W 123°16'0 0.0
2017-Oct-14 11:29N 49°23' W 123°16'0 0.0
2017-Oct-14 10:53N 49°23' W 123°16'0 0.0
2017-Oct-14 10:29N 49°23' W 123°16'0 0.0
2017-Oct-14 09:59N 49°23' W 123°16'0 0.0
2017-Oct-14 09:29N 49°23' W 123°16'0 0.0
2017-Oct-14 08:59N 49°23' W 123°16'0 0.0
2017-Oct-14 08:29N 49°23' W 123°16'0 0.0
2017-Oct-14 07:59N 49°23' W 123°16'0 0.0
2017-Oct-14 07:29N 49°23' W 123°16'0 0.0
2017-Oct-14 06:59N 49°23' W 123°16'0 0.0
2017-Oct-14 06:29N 49°23' W 123°16'0 0.0
2017-Oct-14 05:59N 49°23' W 123°16'0 0.0
2017-Oct-14 05:29N 49°23' W 123°16'2 4.8
2017-Oct-14 05:00N 49°23' W 123°20'2 4.5
2017-Oct-14 04:31N 49°23' W 123°16'2 4.4
2017-Oct-14 04:00N 49°23' W 123°20'2 4.5
2017-Oct-14 03:30N 49°23' W 123°16'2 4.5
2017-Oct-14 03:00N 49°23' W 123°20'2 4.5
2017-Oct-14 02:30N 49°23' W 123°16'2 4.7
2017-Oct-14 02:00N 49°23' W 123°20'2 4.2
2017-Oct-14 01:28N 49°23' W 123°16'2 4.8
2017-Oct-14 00:59N 49°23' W 123°20'2 5.0
2017-Oct-14 00:30N 49°23' W 123°16'2 4.6
2017-Oct-14 00:00N 49°23' W 123°20'2 4.5
2017-Oct-13 23:29N 49°23' W 123°16'2 4.8
2017-Oct-13 23:00N 49°23' W 123°20'2 4.6
2017-Oct-13 22:30N 49°23' W 123°16'2 4.6
2017-Oct-13 22:00N 49°23' W 123°20'2 3.6
2017-Oct-13 21:30N 49°23' W 123°17'1 1.3
2017-Oct-13 21:00N 49°23' W 123°16'0 0.0
2017-Oct-13 20:29N 49°23' W 123°16'0 0.0
2017-Oct-13 19:59N 49°23' W 123°16'2 4.9
2017-Oct-13 19:31N 49°23' W 123°20'2 4.6
2017-Oct-13 19:01N 49°23' W 123°16'2 4.4
2017-Oct-13 18:30N 49°23' W 123°20'2 4.5
2017-Oct-13 18:01N 49°23' W 123°16'2 4.5
2017-Oct-13 17:31N 49°23' W 123°20'2 4.5
2017-Oct-13 17:01N 49°23' W 123°16'2 4.6
2017-Oct-13 16:31N 49°23' W 123°20'2 4.6
2017-Oct-13 16:00N 49°23' W 123°16'2 4.6
2017-Oct-13 15:31N 49°23' W 123°20'2 4.6
2017-Oct-13 15:01N 49°23' W 123°16'2 4.6
2017-Oct-13 14:31N 49°23' W 123°20'2 4.6
2017-Oct-13 14:01N 49°23' W 123°16'2 4.6
2017-Oct-13 13:30N 49°23' W 123°20'2 4.6
2017-Oct-13 13:01N 49°23' W 123°16'2 4.6
2017-Oct-13 12:30N 49°23' W 123°20'2 4.6
2017-Oct-13 12:00N 49°23' W 123°16'0 0.2
2017-Oct-13 11:30N 49°23' W 123°16'0 0.0
2017-Oct-13 10:59N 49°23' W 123°16'0 0.0
2017-Oct-13 10:29N 49°23' W 123°16'0 0.0
2017-Oct-13 09:59N 49°23' W 123°16'0 0.0
2017-Oct-13 09:26N 49°23' W 123°16'0 0.0
2017-Oct-13 08:59N 49°23' W 123°16'0 0.0
2017-Oct-13 08:29N 49°23' W 123°16'0 0.0
2017-Oct-13 07:59N 49°23' W 123°16'0 0.0
2017-Oct-13 07:29N 49°23' W 123°16'0 0.0
2017-Oct-13 06:59N 49°23' W 123°16'0 0.0
2017-Oct-13 06:29N 49°23' W 123°16'0 0.0
2017-Oct-13 05:59N 49°23' W 123°16'0 0.0
2017-Oct-13 05:29N 49°23' W 123°16'2 4.5
2017-Oct-13 05:01N 49°23' W 123°20'2 4.2
2017-Oct-13 04:31N 49°23' W 123°16'2 4.3
2017-Oct-13 04:01N 49°23' W 123°20'2 4.4
2017-Oct-13 03:30N 49°23' W 123°16'2 4.5
2017-Oct-13 03:00N 49°23' W 123°20'2 4.4
2017-Oct-13 02:30N 49°23' W 123°16'2 4.6
2017-Oct-13 02:00N 49°23' W 123°20'2 4.6
2017-Oct-13 01:31N 49°23' W 123°16'2 4.6
2017-Oct-13 01:00N 49°23' W 123°20'  

Dump ship's entire track history